Anthem Of The Seas — C6BI7 — position and weather

sailwx.info

Track history (hours):
 
Tides and Currents Weather Stations Pressure Air Temp Water Temp Dewpoint Dewpoint Depression Visibility Wind Speed Wind Dir Waves Ship Positions

Anthem Of The Seas

Last reported at 2018-Apr-20 04:00 UTC. Time now 2018-Apr-20 06:31 UTC.
Position N 32°54' W 075°18'.

Length 348 m; draft 8.8 m.

Type: Passenger vessel. MMSI: 311000274.

Wind from 020 at 38 knots

Barometer 1016.7 mb
Air temperature 22.0 ° C
Water temperature 24.5 ° C

Date/timePositionNaut miles runAvg speedWind from/ knotsBaromVisibWave heightAir tempDewpointWater temp
2018-Apr-20 04:00N 32°54' W 075°18'28215.7 020 / 381016.7 22.0 24.5
2018-Apr-19 10:00N 28°18' W 076°24'5517.6 190 / 111019.2 23.0 24.0
2018-Apr-19 06:51N 27°24' W 076°38'818.3
2018-Apr-19 06:24N 27°16' W 076°40'718.2
2018-Apr-19 06:00N 27°09' W 076°41'1018.3
2018-Apr-19 05:29N 26°60' W 076°43'918.8
2018-Apr-19 05:00N 26°51' W 076°45'918.3
2018-Apr-19 04:30N 26°42' W 076°47'917.3
2018-Apr-19 04:00N 26°33' W 076°49'4222.8
2018-Apr-19 04:00N 26°30' W 076°48'611.7 100 / 181020.0 24.0 26.5
2018-Apr-19 03:30N 26°25' W 076°52'816.3
2018-Apr-19 03:00N 26°17' W 076°54'817.0
2018-Apr-19 02:30N 26°09' W 076°56'1217.5
2018-Apr-19 01:49N 25°57' W 076°60'917.2
2018-Apr-19 01:16N 25°48' W 077°02'416.8
2018-Apr-19 01:00N 25°44' W 077°04'1017.1
2018-Apr-19 00:25N 25°35' W 077°08'917.8
2018-Apr-18 23:56N 25°27' W 077°12'817.8
2018-Apr-18 23:29N 25°20' W 077°17'916.8
2018-Apr-18 22:58N 25°13' W 077°23'210 4.9
2018-Apr-17 04:00N 27°54' W 079°54'81 4.5 300 / 231019.3 20.0 23.6
2018-Apr-16 10:00N 29°12' W 079°30'12019.9 300 / 551014.2 21.0 27.0
2018-Apr-16 04:00N 30°54' W 078°18'11419.0 180 / 541010.2 2.2 25.0 25.0
2018-Apr-15 22:00N 32°30' W 077°06'22118.4 170 / 451013.010.8 26.0 26.5
2018-Apr-15 10:00N 35°42' W 074°54'13522.5 220 / 191019.510.8 22.0 20.0
2018-Apr-15 04:00N 37°54' W 074°18'6221.4 210 / 361018.6 16.0 9.0
2018-Apr-15 01:05N 38°55' W 074°04'321.5
2018-Apr-15 00:56N 38°59' W 074°03'4221.1
2018-Apr-14 22:57N 39°40' W 073°52'1021.0
2018-Apr-14 22:28N 39°49' W 073°51'3619.3
2018-Apr-14 20:35N 40°26' W 073°48'111.8
2018-Apr-14 20:29N 40°26' W 073°49'715.2
2018-Apr-14 20:00N 40°30' W 073°57'714.0
2018-Apr-14 19:30N 40°36' W 074°02'4 7.9
2018-Apr-14 18:58N 40°40' W 074°04'0 0.0
2018-Apr-14 18:28N 40°40' W 074°04'0 0.0
2018-Apr-14 17:58N 40°40' W 074°04'0 0.0
2018-Apr-14 17:28N 40°40' W 074°04'0 0.0
2018-Apr-14 16:58N 40°40' W 074°04'0 0.0
2018-Apr-14 16:28N 40°40' W 074°04'0 0.0
2018-Apr-14 15:58N 40°40' W 074°04'0 0.0
2018-Apr-14 15:28N 40°40' W 074°04'0 0.0
2018-Apr-14 14:58N 40°40' W 074°04'0 0.0
2018-Apr-14 14:28N 40°40' W 074°04'0 0.0
2018-Apr-14 13:58N 40°40' W 074°04'0 0.0
2018-Apr-14 13:28N 40°40' W 074°04'0 0.0
2018-Apr-14 12:58N 40°40' W 074°04'0 0.0
2018-Apr-14 12:28N 40°40' W 074°04'0 0.0
2018-Apr-14 11:58N 40°40' W 074°04'0 0.0
2018-Apr-14 11:28N 40°40' W 074°04'0 0.0
2018-Apr-14 10:58N 40°40' W 074°04'0 0.0
2018-Apr-14 10:28N 40°40' W 074°04'0 0.0
2018-Apr-14 10:00N 40°40' W 074°04'1 2.7
2018-Apr-14 09:30N 40°39' W 074°03'815.3
2018-Apr-14 09:00N 40°31' W 074°00'613.0
2018-Apr-14 08:30N 40°28' W 073°53'5 9.5
2018-Apr-14 07:59N 40°26' W 073°47'510.0
2018-Apr-14 07:30N 40°21' W 073°46'510.0
2018-Apr-14 07:00N 40°16' W 073°46'5 9.9
2018-Apr-14 06:30N 40°11' W 073°45'2320.8
2018-Apr-14 05:24N 39°49' W 073°42'3789.7
2018-Apr-14 05:00N 39°12' W 073°48'281101.6 220 / 311013.6 14.0 7.7
2018-Apr-14 04:58N 39°39' W 073°43'1723.5
2018-Apr-14 04:14N 39°22' W 073°47'2021.7
2018-Apr-14 03:19N 39°03' W 073°52'823.2
2018-Apr-14 02:59N 38°55' W 073°54'1021.0
2018-Apr-14 02:30N 38°45' W 073°57'2222.5
2018-Apr-14 01:31N 38°24' W 074°03'11612.2
2018-Apr-13 16:00N 36°30' W 074°30'11018.3 210 / 251022.427.0 20.0 15.9
2018-Apr-13 10:00N 34°42' W 074°54'11619.3 240 / 201023.610.8 19.5 25.0
2018-Apr-13 04:00N 32°48' W 075°18'9816.4 160 / 91024.710.8 20.0 23.7
2018-Apr-12 22:00N 31°12' W 075°42'18415.3 110 / 211024.610.8 17.0 22.0
2018-Apr-12 10:00N 28°12' W 076°24'8417.2 070 / 301021.210.8 20.0 23.0
2018-Apr-12 05:05N 26°50' W 076°46'117.1
2018-Apr-12 05:00N 26°49' W 076°46'191407.1
2018-Apr-12 05:00N 26°30' W 076°48'1021.2 040 / 241019.9 23.0 25.0
2018-Apr-12 04:31N 26°40' W 076°47'815.8
2018-Apr-12 04:01N 26°32' W 076°49'815.7
2018-Apr-12 03:31N 26°25' W 076°52'816.2
2018-Apr-12 03:01N 26°17' W 076°54'816.5
2018-Apr-12 02:31N 26°09' W 076°56'816.5
2018-Apr-12 02:00N 26°01' W 076°59'27 1.3
2018-Apr-11 05:08N 25°36' W 077°09'7 8.1
2018-Apr-11 04:19N 25°42' W 077°11'1 2.6
2018-Apr-11 04:00N 25°42' W 077°12'2540.4 020 / 171022.9
2018-Apr-11 03:59N 25°44' W 077°13'3 6.8
2018-Apr-11 03:30N 25°45' W 077°17'37 6.5
2018-Apr-10 21:48N 25°54' W 077°57'3 0.4
2018-Apr-10 12:27N 25°51' W 077°58'1020.7
2018-Apr-10 11:57N 25°57' W 078°08'1022.4
2018-Apr-10 11:30N 26°03' W 078°16'1121.7
2018-Apr-10 11:00N 26°11' W 078°25'2922.6
2018-Apr-10 09:44N 26°25' W 078°53'523.7
2018-Apr-10 09:30N 26°29' W 078°57'1323.6
2018-Apr-10 08:58N 26°38' W 079°07'1123.1
2018-Apr-10 08:28N 26°48' W 079°13'  
Track history (hours):
 
Tides and Currents Weather Stations Pressure Air Temp Water Temp Dewpoint Dewpoint Depression Visibility Wind Speed Wind Dir Waves Ship Positions

Anthem Of The Seas

Last reported at 2018-Apr-20 04:00 UTC. Time now 2018-Apr-20 06:31 UTC.
Position N 32°54' W 075°18'.

Length 348 m; draft 8.8 m.

Type: Passenger vessel. MMSI: 311000274.

Wind from 020 at 38 knots

Barometer 1016.7 mb
Air temperature 22.0 ° C
Water temperature 24.5 ° C

Date/timePositionNaut miles runAvg speedWind from/ knotsBaromVisibWave heightAir tempDewpointWater temp
2018-Apr-20 04:00N 32°54' W 075°18'28215.7 020 / 381016.7 22.0 24.5
2018-Apr-19 10:00N 28°18' W 076°24'5517.6 190 / 111019.2 23.0 24.0
2018-Apr-19 06:51N 27°24' W 076°38'818.3
2018-Apr-19 06:24N 27°16' W 076°40'718.2
2018-Apr-19 06:00N 27°09' W 076°41'1018.3
2018-Apr-19 05:29N 26°60' W 076°43'918.8
2018-Apr-19 05:00N 26°51' W 076°45'918.3
2018-Apr-19 04:30N 26°42' W 076°47'917.3
2018-Apr-19 04:00N 26°33' W 076°49'4222.8
2018-Apr-19 04:00N 26°30' W 076°48'611.7 100 / 181020.0 24.0 26.5
2018-Apr-19 03:30N 26°25' W 076°52'816.3
2018-Apr-19 03:00N 26°17' W 076°54'817.0
2018-Apr-19 02:30N 26°09' W 076°56'1217.5
2018-Apr-19 01:49N 25°57' W 076°60'917.2
2018-Apr-19 01:16N 25°48' W 077°02'416.8
2018-Apr-19 01:00N 25°44' W 077°04'1017.1
2018-Apr-19 00:25N 25°35' W 077°08'917.8
2018-Apr-18 23:56N 25°27' W 077°12'817.8
2018-Apr-18 23:29N 25°20' W 077°17'916.8
2018-Apr-18 22:58N 25°13' W 077°23'210 4.9
2018-Apr-17 04:00N 27°54' W 079°54'81 4.5 300 / 231019.3 20.0 23.6
2018-Apr-16 10:00N 29°12' W 079°30'12019.9 300 / 551014.2 21.0 27.0
2018-Apr-16 04:00N 30°54' W 078°18'11419.0 180 / 541010.2 2.2 25.0 25.0
2018-Apr-15 22:00N 32°30' W 077°06'22118.4 170 / 451013.010.8 26.0 26.5
2018-Apr-15 10:00N 35°42' W 074°54'13522.5 220 / 191019.510.8 22.0 20.0
2018-Apr-15 04:00N 37°54' W 074°18'6221.4 210 / 361018.6 16.0 9.0
2018-Apr-15 01:05N 38°55' W 074°04'321.5
2018-Apr-15 00:56N 38°59' W 074°03'4221.1
2018-Apr-14 22:57N 39°40' W 073°52'1021.0
2018-Apr-14 22:28N 39°49' W 073°51'3619.3
2018-Apr-14 20:35N 40°26' W 073°48'111.8
2018-Apr-14 20:29N 40°26' W 073°49'715.2
2018-Apr-14 20:00N 40°30' W 073°57'714.0
2018-Apr-14 19:30N 40°36' W 074°02'4 7.9
2018-Apr-14 18:58N 40°40' W 074°04'0 0.0
2018-Apr-14 18:28N 40°40' W 074°04'0 0.0
2018-Apr-14 17:58N 40°40' W 074°04'0 0.0
2018-Apr-14 17:28N 40°40' W 074°04'0 0.0
2018-Apr-14 16:58N 40°40' W 074°04'0 0.0
2018-Apr-14 16:28N 40°40' W 074°04'0 0.0
2018-Apr-14 15:58N 40°40' W 074°04'0 0.0
2018-Apr-14 15:28N 40°40' W 074°04'0 0.0
2018-Apr-14 14:58N 40°40' W 074°04'0 0.0
2018-Apr-14 14:28N 40°40' W 074°04'0 0.0
2018-Apr-14 13:58N 40°40' W 074°04'0 0.0
2018-Apr-14 13:28N 40°40' W 074°04'0 0.0
2018-Apr-14 12:58N 40°40' W 074°04'0 0.0
2018-Apr-14 12:28N 40°40' W 074°04'0 0.0
2018-Apr-14 11:58N 40°40' W 074°04'0 0.0
2018-Apr-14 11:28N 40°40' W 074°04'0 0.0
2018-Apr-14 10:58N 40°40' W 074°04'0 0.0
2018-Apr-14 10:28N 40°40' W 074°04'0 0.0
2018-Apr-14 10:00N 40°40' W 074°04'1 2.7
2018-Apr-14 09:30N 40°39' W 074°03'815.3
2018-Apr-14 09:00N 40°31' W 074°00'613.0
2018-Apr-14 08:30N 40°28' W 073°53'5 9.5
2018-Apr-14 07:59N 40°26' W 073°47'510.0
2018-Apr-14 07:30N 40°21' W 073°46'510.0
2018-Apr-14 07:00N 40°16' W 073°46'5 9.9
2018-Apr-14 06:30N 40°11' W 073°45'2320.8
2018-Apr-14 05:24N 39°49' W 073°42'3789.7
2018-Apr-14 05:00N 39°12' W 073°48'281101.6 220 / 311013.6 14.0 7.7
2018-Apr-14 04:58N 39°39' W 073°43'1723.5
2018-Apr-14 04:14N 39°22' W 073°47'2021.7
2018-Apr-14 03:19N 39°03' W 073°52'823.2
2018-Apr-14 02:59N 38°55' W 073°54'1021.0
2018-Apr-14 02:30N 38°45' W 073°57'2222.5
2018-Apr-14 01:31N 38°24' W 074°03'11612.2
2018-Apr-13 16:00N 36°30' W 074°30'11018.3 210 / 251022.427.0 20.0 15.9
2018-Apr-13 10:00N 34°42' W 074°54'11619.3 240 / 201023.610.8 19.5 25.0
2018-Apr-13 04:00N 32°48' W 075°18'9816.4 160 / 91024.710.8 20.0 23.7
2018-Apr-12 22:00N 31°12' W 075°42'18415.3 110 / 211024.610.8 17.0 22.0
2018-Apr-12 10:00N 28°12' W 076°24'8417.2 070 / 301021.210.8 20.0 23.0
2018-Apr-12 05:05N 26°50' W 076°46'117.1
2018-Apr-12 05:00N 26°49' W 076°46'191407.1
2018-Apr-12 05:00N 26°30' W 076°48'1021.2 040 / 241019.9 23.0 25.0
2018-Apr-12 04:31N 26°40' W 076°47'815.8
2018-Apr-12 04:01N 26°32' W 076°49'815.7
2018-Apr-12 03:31N 26°25' W 076°52'816.2
2018-Apr-12 03:01N 26°17' W 076°54'816.5
2018-Apr-12 02:31N 26°09' W 076°56'816.5
2018-Apr-12 02:00N 26°01' W 076°59'27 1.3
2018-Apr-11 05:08N 25°36' W 077°09'7 8.1
2018-Apr-11 04:19N 25°42' W 077°11'1 2.6
2018-Apr-11 04:00N 25°42' W 077°12'2540.4 020 / 171022.9
2018-Apr-11 03:59N 25°44' W 077°13'3 6.8
2018-Apr-11 03:30N 25°45' W 077°17'37 6.5
2018-Apr-10 21:48N 25°54' W 077°57'3 0.4
2018-Apr-10 12:27N 25°51' W 077°58'1020.7
2018-Apr-10 11:57N 25°57' W 078°08'1022.4
2018-Apr-10 11:30N 26°03' W 078°16'1121.7
2018-Apr-10 11:00N 26°11' W 078°25'2922.6
2018-Apr-10 09:44N 26°25' W 078°53'523.7
2018-Apr-10 09:30N 26°29' W 078°57'1323.6
2018-Apr-10 08:58N 26°38' W 079°07'1123.1
2018-Apr-10 08:28N 26°48' W 079°13'  

Dump ship's entire track history